Prairieville, Missouri
Current Conditions -  °F | °C
As of 7:55 AM on Monday 24 Nov 2014 (Local Time) from KPPQ Reporting Station
Overcast Overcast  
Wind Chill: 25°   Ceiling: 2400
Heat Index: 35°   Visibility: 10mi
Dew Point: 30°   Wind: 16mph
Humidity: 81%   Direction: 260°W
Pressure: 29.5"   Gusts: 25mph
Location:  39.2534°N, 91.009°W
Report Text: KPPQ 241355Z AUTO 26014G22KT 10SM OVC024 02/M01 A2950 RMK AO2 T00181011 PWINO
Loading
Personal Weather Stations






























Interactive Weather Map New forecast layout! Learn more

10-Day Weather Forecast

Advertisements
Track Severe Weather on mobile